Time;durP1;ratioP1;P1;durP2;ratioP2;P2;SDS_P1;SDS_P2;PMS_P1;PMS_P2;Temp;Humidity;BMP_temperature;BMP_pressure;BME280_temperature;BME280_humidity;BME280_pressure;Samples;Min_cycle;Max_cycle;Signal;HPM_P1;HPM_P2
2022/11/14 00:00:46;;;;;;;;;;;7.60;99.90;;;;;;5110980;27;19951;-43
2022/11/14 00:03:12;;;;;;;;;;;7.60;99.90;;;;;;5101467;28;19974;-41
2022/11/14 00:05:39;;;;;;;;;;;7.50;99.90;;;;;;5101905;28;19968;-34
2022/11/14 00:08:05;;;;;;;;;;;7.50;99.90;;;;;;5103168;28;19912;-40
2022/11/14 00:10:31;;;;;;;;;;;7.50;99.90;;;;;;5101502;28;19918;-47
2022/11/14 00:12:56;;;;;;;;;;;7.50;99.90;;;;;;5101734;28;20048;-33
2022/11/14 00:15:22;;;;;;;;;;;7.50;99.90;;;;;;5105127;28;19966;-32
2022/11/14 00:17:47;;;;;;;;;;;7.50;99.90;;;;;;5106340;28;19908;-32
2022/11/14 00:20:13;;;;;;;;;;;7.50;99.90;;;;;;5104147;28;19965;-38
2022/11/14 00:22:39;;;;;;;;;;;7.50;99.90;;;;;;5102724;28;19934;-34
2022/11/14 00:25:04;;;;;;;;;;;7.50;99.90;;;;;;5094094;28;19912;-37
2022/11/14 00:27:30;;;;;;;;;;;7.40;99.90;;;;;;5092871;28;19934;-32
2022/11/14 00:29:55;;;;;;;;;;;7.40;99.90;;;;;;5102546;28;20360;-35
2022/11/14 00:32:21;;;;;;;;;;;7.40;99.90;;;;;;5104778;28;19915;-39
2022/11/14 00:34:47;;;;;;;;;;;7.40;99.90;;;;;;5091771;28;19908;-33
2022/11/14 00:37:12;;;;;;;;;;;7.40;99.90;;;;;;5096133;28;20356;-33
2022/11/14 00:39:38;;;;;;;;;;;7.40;99.90;;;;;;5092967;28;19996;-35
2022/11/14 00:42:03;;;;;;;;;;;7.30;99.90;;;;;;5098525;28;19915;-34
2022/11/14 00:44:29;;;;;;;;;;;7.30;99.90;;;;;;5108038;28;19916;-34
2022/11/14 00:46:54;;;;;;;;;;;7.30;99.90;;;;;;5112684;28;20375;-32
2022/11/14 00:49:20;;;;;;;;;;;7.30;99.90;;;;;;5111867;28;19911;-31
2022/11/14 00:51:46;;;;;;;;;;;7.30;99.90;;;;;;5112010;28;20272;-41
2022/11/14 00:54:11;;;;;;;;;;;7.30;99.90;;;;;;5103193;28;20360;-35
2022/11/14 00:56:36;;;;;;;;;;;7.30;99.90;;;;;;5103192;28;19984;-35
2022/11/14 00:59:02;;;;;;;;;;;7.30;99.90;;;;;;5096228;28;19912;-34
2022/11/14 01:01:28;;;;;;;;;;;7.30;99.90;;;;;;5104212;28;19934;-36
2022/11/14 01:03:53;;;;;;;;;;;7.30;99.90;;;;;;5100273;28;19912;-32
2022/11/14 01:06:19;;;;;;;;;;;7.20;99.90;;;;;;5107529;28;20363;-32
2022/11/14 01:08:44;;;;;;;;;;;7.20;99.90;;;;;;5100951;28;19974;-41
2022/11/14 01:11:28;;;;;;;;;;;7.20;99.90;;;;;;5100462;28;19951;-43
2022/11/14 01:13:54;;;;;;;;;;;7.20;99.90;;;;;;5107336;28;20291;-41
2022/11/14 01:16:19;;;;;;;;;;;7.20;99.90;;;;;;5101000;28;19931;-43
2022/11/14 01:18:45;;;;;;;;;;;7.20;99.90;;;;;;5099815;28;19969;-37
2022/11/14 01:21:11;;;;;;;;;;;7.10;99.90;;;;;;5106418;28;20003;-33
2022/11/14 01:23:37;;;;;;;;;;;7.10;99.90;;;;;;5098181;28;20612;-37
2022/11/14 01:26:07;;;;;;;;;;;7.10;99.90;;;;;;5103495;28;19962;-34
2022/11/14 01:28:32;;;;;;;;;;;7.00;99.90;;;;;;5099588;28;20317;-32
2022/11/14 01:31:30;;;;;;;;;;;7.10;99.90;;;;;;5104643;28;19908;-32
2022/11/14 01:33:56;;;;;;;;;;;7.00;99.90;;;;;;5068833;28;19914;-38
2022/11/14 01:36:21;;;;;;;;;;;7.10;99.90;;;;;;5092360;28;20271;-33
2022/11/14 01:38:50;;;;;;;;;;;7.00;99.90;;;;;;5110769;28;20474;-32
2022/11/14 01:41:16;;;;;;;;;;;7.00;99.90;;;;;;5113245;28;19961;-34
2022/11/14 01:43:42;;;;;;;;;;;6.90;99.90;;;;;;5099847;28;19911;-35
2022/11/14 01:46:25;;;;;;;;;;;6.90;99.90;;;;;;5104836;28;19947;-37
2022/11/14 01:49:09;;;;;;;;;;;6.80;99.90;;;;;;5107673;28;20034;-37
2022/11/14 01:51:37;;;;;;;;;;;6.80;99.90;;;;;;5112221;28;19908;-35
2022/11/14 01:54:04;;;;;;;;;;;6.80;99.90;;;;;;5108292;28;20398;-40
2022/11/14 01:56:36;;;;;;;;;;;6.70;99.90;;;;;;5100412;28;19908;-35
2022/11/14 01:59:04;;;;;;;;;;;6.70;99.90;;;;;;5109257;28;19914;-43
2022/11/14 02:01:31;;;;;;;;;;;6.70;99.90;;;;;;5107178;28;19908;-38
2022/11/14 02:03:58;;;;;;;;;;;6.70;99.90;;;;;;5113488;28;19907;-45
2022/11/14 02:06:26;;;;;;;;;;;6.60;99.90;;;;;;5095477;28;20010;-33
2022/11/14 02:08:52;;;;;;;;;;;6.50;99.90;;;;;;5109313;28;19915;-33
2022/11/14 02:11:18;;;;;;;;;;;6.50;99.90;;;;;;5102407;28;20355;-32
2022/11/14 02:13:44;;;;;;;;;;;6.50;99.90;;;;;;5099332;28;19908;-40
2022/11/14 02:16:09;;;;;;;;;;;6.50;99.90;;;;;;5108079;28;19963;-41
2022/11/14 02:18:35;;;;;;;;;;;6.40;99.90;;;;;;5113491;28;19908;-35
2022/11/14 02:21:00;;;;;;;;;;;6.40;99.90;;;;;;5094558;28;19966;-37
2022/11/14 02:23:27;;;;;;;;;;;6.50;99.90;;;;;;5104131;28;19915;-35
2022/11/14 02:25:52;;;;;;;;;;;6.40;99.90;;;;;;5111340;28;20272;-32
2022/11/14 02:28:20;;;;;;;;;;;6.40;99.90;;;;;;5104377;28;19923;-37
2022/11/14 02:30:45;;;;;;;;;;;6.40;99.90;;;;;;5105458;28;19908;-35
2022/11/14 02:33:11;;;;;;;;;;;6.40;99.90;;;;;;5107492;28;19961;-33
2022/11/14 02:35:36;;;;;;;;;;;6.40;99.90;;;;;;5101023;28;20325;-31
2022/11/14 02:38:02;;;;;;;;;;;6.40;99.90;;;;;;5097752;28;19912;-33
2022/11/14 02:40:27;;;;;;;;;;;6.40;99.90;;;;;;5099495;28;19908;-40
2022/11/14 02:42:53;;;;;;;;;;;6.40;99.90;;;;;;5097559;28;19908;-39
2022/11/14 02:45:19;;;;;;;;;;;6.40;99.90;;;;;;5097527;28;20291;-49
2022/11/14 02:47:45;;;;;;;;;;;6.30;99.90;;;;;;5104982;28;20013;-41
2022/11/14 02:50:10;;;;;;;;;;;6.30;99.90;;;;;;5106095;28;20687;-41
2022/11/14 02:52:36;;;;;;;;;;;6.30;99.90;;;;;;5094973;28;19995;-40
2022/11/14 02:55:02;;;;;;;;;;;6.30;99.90;;;;;;5106229;28;19915;-34
2022/11/14 02:57:27;;;;;;;;;;;6.20;99.90;;;;;;5108337;28;19915;-41
2022/11/14 02:59:53;;;;;;;;;;;6.20;99.90;;;;;;5108070;28;19931;-41
2022/11/14 03:02:18;;;;;;;;;;;6.20;99.90;;;;;;5104611;28;19912;-31
2022/11/14 03:04:44;;;;;;;;;;;6.20;99.90;;;;;;5107813;28;19908;-34
2022/11/14 03:07:10;;;;;;;;;;;6.20;99.90;;;;;;5111515;28;19919;-32
2022/11/14 03:09:35;;;;;;;;;;;6.10;99.90;;;;;;5100072;28;20326;-34
2022/11/14 03:12:01;;;;;;;;;;;6.10;99.90;;;;;;5113821;28;19922;-39
2022/11/14 03:14:28;;;;;;;;;;;6.10;99.90;;;;;;5105360;28;19911;-39
2022/11/14 03:16:54;;;;;;;;;;;6.10;99.90;;;;;;5093771;28;20275;-40
2022/11/14 03:19:19;;;;;;;;;;;6.00;99.90;;;;;;5094607;28;19908;-41
2022/11/14 03:21:45;;;;;;;;;;;6.00;99.90;;;;;;5100707;28;19908;-40
2022/11/14 03:24:11;;;;;;;;;;;6.00;99.90;;;;;;5103830;28;20275;-41
2022/11/14 03:26:37;;;;;;;;;;;6.00;99.90;;;;;;5100747;28;20390;-41
2022/11/14 03:29:02;;;;;;;;;;;6.00;99.90;;;;;;5102223;28;19916;-39
2022/11/14 03:31:28;;;;;;;;;;;5.90;99.90;;;;;;5101440;28;20310;-40
2022/11/14 03:33:53;;;;;;;;;;;6.00;99.90;;;;;;5104485;28;19908;-42
2022/11/14 03:36:19;;;;;;;;;;;6.00;99.90;;;;;;5099909;28;19961;-39
2022/11/14 03:38:44;;;;;;;;;;;5.90;99.90;;;;;;5095417;28;19933;-39
2022/11/14 03:41:10;;;;;;;;;;;6.00;99.90;;;;;;5110322;28;19931;-41
2022/11/14 03:43:36;;;;;;;;;;;6.00;99.90;;;;;;5111767;28;19908;-42
2022/11/14 03:46:02;;;;;;;;;;;6.00;99.90;;;;;;5092061;28;19912;-41
2022/11/14 03:48:28;;;;;;;;;;;5.90;99.90;;;;;;5104516;28;19908;-39
2022/11/14 03:50:54;;;;;;;;;;;5.90;99.90;;;;;;5112103;28;20473;-42
2022/11/14 03:53:20;;;;;;;;;;;5.80;99.90;;;;;;5099534;28;20370;-39
2022/11/14 03:55:45;;;;;;;;;;;5.80;99.90;;;;;;5102300;28;19907;-40
2022/11/14 03:58:11;;;;;;;;;;;5.70;99.90;;;;;;5112291;28;19907;-40
2022/11/14 04:00:36;;;;;;;;;;;5.70;99.90;;;;;;5095189;28;19914;-41
2022/11/14 04:03:02;;;;;;;;;;;5.70;99.90;;;;;;5111812;28;19911;-42
2022/11/14 04:05:27;;;;;;;;;;;5.70;99.90;;;;;;5093894;28;19904;-40
2022/11/14 04:07:53;;;;;;;;;;;5.70;99.90;;;;;;5106704;28;19939;-41
2022/11/14 04:10:18;;;;;;;;;;;5.70;99.90;;;;;;5094366;28;19912;-43
2022/11/14 04:12:48;;;;;;;;;;;5.70;99.90;;;;;;5092758;28;20263;-41
2022/11/14 04:15:13;;;;;;;;;;;5.70;99.90;;;;;;5094418;28;20390;-41
2022/11/14 04:17:39;;;;;;;;;;;5.70;99.90;;;;;;5101564;28;19912;-39
2022/11/14 04:20:05;;;;;;;;;;;5.70;99.90;;;;;;5093650;28;19907;-41
2022/11/14 04:22:30;;;;;;;;;;;5.70;99.90;;;;;;5099004;28;19908;-44
2022/11/14 04:24:56;;;;;;;;;;;5.70;99.90;;;;;;5095824;28;20372;-40
2022/11/14 04:27:21;;;;;;;;;;;5.60;99.90;;;;;;5094516;28;19977;-41
2022/11/14 04:29:46;;;;;;;;;;;5.60;99.90;;;;;;5108362;28;19915;-40
2022/11/14 04:32:12;;;;;;;;;;;5.60;99.90;;;;;;5099068;28;19911;-41
2022/11/14 04:34:38;;;;;;;;;;;5.50;99.90;;;;;;5094560;28;20010;-40
2022/11/14 04:37:03;;;;;;;;;;;5.50;99.90;;;;;;5105712;28;19908;-42
2022/11/14 04:39:28;;;;;;;;;;;5.50;99.90;;;;;;5096957;28;19912;-40
2022/11/14 04:41:54;;;;;;;;;;;5.50;99.90;;;;;;5112799;28;19916;-41
2022/11/14 04:44:19;;;;;;;;;;;5.40;99.90;;;;;;5107336;28;19908;-40
2022/11/14 04:46:45;;;;;;;;;;;5.40;99.90;;;;;;5105083;28;19947;-40
2022/11/14 04:49:10;;;;;;;;;;;5.40;99.90;;;;;;5094323;28;19930;-47
2022/11/14 04:51:36;;;;;;;;;;;5.40;99.90;;;;;;5106502;28;20265;-36
2022/11/14 04:54:01;;;;;;;;;;;5.40;99.90;;;;;;5102887;28;19918;-37
2022/11/14 04:56:28;;;;;;;;;;;5.50;99.90;;;;;;5106403;28;19908;-34
2022/11/14 04:58:53;;;;;;;;;;;5.50;99.90;;;;;;5107816;28;19908;-34
2022/11/14 05:01:19;;;;;;;;;;;5.40;99.90;;;;;;5093830;28;20015;-36
2022/11/14 05:03:44;;;;;;;;;;;5.40;99.90;;;;;;5097477;28;19915;-34
2022/11/14 05:06:10;;;;;;;;;;;5.40;99.90;;;;;;5094780;28;19915;-36
2022/11/14 05:08:35;;;;;;;;;;;5.40;99.90;;;;;;5111856;28;20287;-32
2022/11/14 05:11:01;;;;;;;;;;;5.30;99.90;;;;;;5109802;28;19912;-37
2022/11/14 05:13:26;;;;;;;;;;;5.30;99.90;;;;;;5108544;28;19908;-36
2022/11/14 05:15:52;;;;;;;;;;;5.30;99.90;;;;;;5100971;28;20604;-35
2022/11/14 05:18:17;;;;;;;;;;;5.30;99.90;;;;;;5105626;28;19908;-37
2022/11/14 05:20:43;;;;;;;;;;;5.30;99.90;;;;;;5093428;28;19907;-32
2022/11/14 05:23:18;;;;;;;;;;;5.20;99.90;;;;;;5097400;28;19995;-38
2022/11/14 05:25:43;;;;;;;;;;;5.20;99.90;;;;;;5103448;28;19912;-36
2022/11/14 05:28:09;;;;;;;;;;;5.10;99.90;;;;;;5094195;28;19927;-38
2022/11/14 05:30:34;;;;;;;;;;;5.10;99.90;;;;;;5106928;28;19908;-32
2022/11/14 05:33:00;;;;;;;;;;;5.10;99.90;;;;;;5106902;28;20342;-40
2022/11/14 05:35:25;;;;;;;;;;;5.10;99.90;;;;;;5108199;28;20297;-34
2022/11/14 05:37:51;;;;;;;;;;;5.10;99.90;;;;;;5100863;28;19912;-42
2022/11/14 05:40:19;;;;;;;;;;;5.20;99.90;;;;;;5102754;28;19908;-32
2022/11/14 05:42:45;;;;;;;;;;;5.20;99.90;;;;;;5105337;28;19950;-34
2022/11/14 05:45:10;;;;;;;;;;;5.20;99.90;;;;;;5107206;28;20390;-33
2022/11/14 05:47:35;;;;;;;;;;;5.20;99.90;;;;;;5100781;28;19912;-32
2022/11/14 05:50:01;;;;;;;;;;;5.20;99.90;;;;;;5095822;28;20280;-35
2022/11/14 05:52:27;;;;;;;;;;;5.20;99.90;;;;;;5106981;28;19908;-40
2022/11/14 05:54:52;;;;;;;;;;;5.20;99.90;;;;;;5106580;28;19908;-32
2022/11/14 05:57:18;;;;;;;;;;;5.10;99.90;;;;;;5108030;28;20380;-33
2022/11/14 05:59:43;;;;;;;;;;;5.10;99.90;;;;;;5098776;28;19908;-39
2022/11/14 06:02:09;;;;;;;;;;;5.10;99.90;;;;;;5102097;28;19908;-34
2022/11/14 06:04:34;;;;;;;;;;;5.10;99.90;;;;;;5111369;28;19950;-36
2022/11/14 06:07:00;;;;;;;;;;;5.10;99.90;;;;;;5099257;28;19911;-32
2022/11/14 06:09:25;;;;;;;;;;;5.10;99.90;;;;;;5104294;28;19908;-36
2022/11/14 06:11:51;;;;;;;;;;;5.10;99.90;;;;;;5106711;28;19907;-34
2022/11/14 06:14:16;;;;;;;;;;;5.10;99.90;;;;;;5098947;28;19908;-32
2022/11/14 06:16:42;;;;;;;;;;;5.00;99.90;;;;;;5104623;28;19908;-42
2022/11/14 06:19:07;;;;;;;;;;;5.00;99.90;;;;;;5104759;28;20409;-44
2022/11/14 06:21:33;;;;;;;;;;;5.00;99.90;;;;;;5111120;28;19990;-41
2022/11/14 06:23:58;;;;;;;;;;;5.00;99.90;;;;;;5101754;28;19923;-33
2022/11/14 06:26:25;;;;;;;;;;;5.00;99.90;;;;;;5100917;28;19920;-34
2022/11/14 06:28:51;;;;;;;;;;;4.90;99.90;;;;;;5102346;28;20371;-37
2022/11/14 06:31:18;;;;;;;;;;;4.90;99.90;;;;;;5096105;28;19912;-34
2022/11/14 06:33:43;;;;;;;;;;;4.80;99.90;;;;;;5105369;28;19908;-33
2022/11/14 06:36:09;;;;;;;;;;;4.90;99.90;;;;;;5115325;28;19912;-33
2022/11/14 06:38:36;;;;;;;;;;;4.80;99.90;;;;;;5111774;28;19908;-37
2022/11/14 06:41:01;;;;;;;;;;;4.80;99.90;;;;;;5096090;28;19908;-40
2022/11/14 06:43:27;;;;;;;;;;;4.80;99.90;;;;;;5094984;28;19908;-31
2022/11/14 06:45:53;;;;;;;;;;;4.80;99.90;;;;;;5095635;28;19908;-33
2022/11/14 06:48:18;;;;;;;;;;;4.80;99.90;;;;;;5101504;28;20409;-32
2022/11/14 06:50:49;;;;;;;;;;;4.80;99.90;;;;;;5110403;28;19908;-37
2022/11/14 06:53:15;;;;;;;;;;;4.80;99.90;;;;;;5103096;28;19967;-42
2022/11/14 06:55:40;;;;;;;;;;;4.80;99.90;;;;;;5093716;28;19962;-40
2022/11/14 06:58:06;;;;;;;;;;;4.80;99.90;;;;;;5094807;28;19908;-42
2022/11/14 07:00:31;;;;;;;;;;;4.80;99.90;;;;;;5100666;28;19908;-33
2022/11/14 07:02:57;;;;;;;;;;;4.80;99.90;;;;;;5101059;28;19907;-33
2022/11/14 07:05:22;;;;;;;;;;;4.90;99.90;;;;;;5114977;28;19908;-32
2022/11/14 07:07:48;;;;;;;;;;;4.90;99.90;;;;;;5109823;28;19916;-34
2022/11/14 07:10:13;;;;;;;;;;;5.10;99.90;;;;;;5094507;28;19908;-38
2022/11/14 07:12:39;;;;;;;;;;;5.20;99.90;;;;;;5104145;28;20355;-32
2022/11/14 07:15:05;;;;;;;;;;;5.40;99.90;;;;;;5109134;28;19972;-33
2022/11/14 07:17:33;;;;;;;;;;;5.60;99.90;;;;;;5103008;28;19951;-40
2022/11/14 07:19:58;;;;;;;;;;;5.70;99.90;;;;;;5094913;28;19904;-35
2022/11/14 07:22:23;;;;;;;;;;;5.80;99.90;;;;;;5093802;28;19953;-35
2022/11/14 07:24:49;;;;;;;;;;;5.80;99.90;;;;;;5097437;28;20053;-32
2022/11/14 07:27:14;;;;;;;;;;;5.80;99.90;;;;;;5094433;28;20321;-34
2022/11/14 07:29:40;;;;;;;;;;;5.80;99.90;;;;;;5094717;28;19962;-34
2022/11/14 07:32:05;;;;;;;;;;;5.80;99.90;;;;;;5094478;28;19908;-35
2022/11/14 07:34:31;;;;;;;;;;;5.80;99.90;;;;;;5091931;28;19944;-34
2022/11/14 07:36:56;;;;;;;;;;;5.80;99.90;;;;;;5092752;28;19908;-33
2022/11/14 07:39:22;;;;;;;;;;;5.80;99.90;;;;;;5095637;28;19908;-55
2022/11/14 07:41:47;;;;;;;;;;;5.80;99.90;;;;;;5093584;28;19949;-34
2022/11/14 07:44:13;;;;;;;;;;;5.80;99.90;;;;;;5094468;28;19910;-41
2022/11/14 07:46:38;;;;;;;;;;;5.80;99.90;;;;;;5108473;28;19915;-37
2022/11/14 07:49:04;;;;;;;;;;;5.80;99.90;;;;;;5104846;28;19912;-33
2022/11/14 07:51:29;;;;;;;;;;;5.80;99.90;;;;;;5093005;28;20404;-35
2022/11/14 07:53:55;;;;;;;;;;;5.90;99.90;;;;;;5109053;28;19919;-31
2022/11/14 07:56:21;;;;;;;;;;;5.90;99.90;;;;;;5101325;28;19907;-38
2022/11/14 07:58:46;;;;;;;;;;;6.00;99.90;;;;;;5092249;28;19908;-35
2022/11/14 08:01:12;;;;;;;;;;;6.00;99.90;;;;;;5095670;28;19926;-31
2022/11/14 08:03:38;;;;;;;;;;;6.00;99.90;;;;;;5093770;28;19996;-31
2022/11/14 08:06:05;;;;;;;;;;;6.10;99.90;;;;;;5099110;28;19912;-34
2022/11/14 08:08:49;;;;;;;;;;;6.10;99.90;;;;;;5100372;28;19937;-33
2022/11/14 08:11:15;;;;;;;;;;;6.20;99.90;;;;;;5107971;28;19960;-34
2022/11/14 08:13:40;;;;;;;;;;;6.20;99.90;;;;;;5097590;28;20329;-33
2022/11/14 08:16:07;;;;;;;;;;;6.30;99.90;;;;;;5095456;28;19954;-34
2022/11/14 08:18:32;;;;;;;;;;;6.40;99.90;;;;;;5107825;28;20021;-31
2022/11/14 08:20:58;;;;;;;;;;;6.40;99.90;;;;;;5095794;28;19915;-34
2022/11/14 08:23:23;;;;;;;;;;;6.50;99.90;;;;;;5099119;28;19907;-33
2022/11/14 08:25:49;;;;;;;;;;;6.50;99.90;;;;;;5107784;28;20014;-35
2022/11/14 08:28:14;;;;;;;;;;;6.60;99.90;;;;;;5110758;28;19919;-48
2022/11/14 08:30:40;;;;;;;;;;;6.70;99.90;;;;;;5098927;28;20390;-32
2022/11/14 08:33:06;;;;;;;;;;;6.70;99.90;;;;;;5100770;27;19915;-34
2022/11/14 08:35:32;;;;;;;;;;;6.70;99.90;;;;;;5098773;28;20395;-33
2022/11/14 08:37:57;;;;;;;;;;;6.80;99.90;;;;;;5093744;28;19925;-37
2022/11/14 08:40:23;;;;;;;;;;;6.90;99.90;;;;;;5090096;28;20437;-44
2022/11/14 08:42:48;;;;;;;;;;;6.90;99.90;;;;;;5100231;28;20010;-33
2022/11/14 08:45:14;;;;;;;;;;;7.00;99.90;;;;;;5110078;28;20387;-31
2022/11/14 08:47:39;;;;;;;;;;;7.10;99.90;;;;;;5095504;28;20049;-34
2022/11/14 08:50:05;;;;;;;;;;;7.20;99.90;;;;;;5104775;28;19934;-34
2022/11/14 08:52:30;;;;;;;;;;;7.20;99.90;;;;;;5111926;28;19908;-33
2022/11/14 08:54:56;;;;;;;;;;;7.20;99.90;;;;;;5104969;28;19908;-32
2022/11/14 08:57:21;;;;;;;;;;;7.20;99.90;;;;;;5103075;28;19908;-36
2022/11/14 08:59:47;;;;;;;;;;;7.20;99.90;;;;;;5104293;28;19912;-41
2022/11/14 09:02:12;;;;;;;;;;;7.30;99.90;;;;;;5096804;28;20413;-31
2022/11/14 09:04:38;;;;;;;;;;;7.40;99.90;;;;;;5107043;28;19920;-36
2022/11/14 09:07:03;;;;;;;;;;;7.40;99.90;;;;;;5095602;28;19912;-33
2022/11/14 09:09:29;;;;;;;;;;;7.50;99.90;;;;;;5096972;28;20267;-55
2022/11/14 09:14:39;;;;;;;;;;;7.70;99.90;;;;;;5113084;28;19919;-48
2022/11/14 09:17:04;;;;;;;;;;;7.80;99.90;;;;;;5108246;28;19912;-41
2022/11/14 09:19:30;;;;;;;;;;;7.80;99.90;;;;;;5110561;28;20261;-38
2022/11/14 09:21:55;;;;;;;;;;;7.90;99.90;;;;;;5116459;28;19904;-36
2022/11/14 09:24:21;;;;;;;;;;;8.00;99.90;;;;;;5100643;28;19923;-38
2022/11/14 09:26:48;;;;;;;;;;;8.00;99.90;;;;;;5099765;28;19920;-32
2022/11/14 09:29:14;;;;;;;;;;;8.10;99.90;;;;;;5108808;28;19908;-31
2022/11/14 09:31:40;;;;;;;;;;;8.10;99.90;;;;;;5098391;28;20256;-30
2022/11/14 09:34:05;;;;;;;;;;;8.10;99.90;;;;;;5098884;28;19923;-36
2022/11/14 09:36:31;;;;;;;;;;;8.20;99.90;;;;;;5097900;28;20057;-34
2022/11/14 09:38:56;;;;;;;;;;;8.30;99.90;;;;;;5108886;28;19907;-43
2022/11/14 09:41:44;;;;;;;;;;;8.50;99.90;;;;;;5097762;28;19993;-37
2022/11/14 09:44:21;;;;;;;;;;;8.50;99.90;;;;;;5113716;28;19956;-41
2022/11/14 09:46:58;;;;;;;;;;;8.50;99.90;;;;;;5096228;28;19931;-41
2022/11/14 09:49:37;;;;;;;;;;;8.70;99.90;;;;;;5114776;28;20768;-41
2022/11/14 09:52:22;;;;;;;;;;;8.70;99.90;;;;;;5111282;28;20390;-41
2022/11/14 09:54:52;;;;;;;;;;;8.80;99.90;;;;;;5112222;28;19907;-42
2022/11/14 09:57:19;;;;;;;;;;;8.80;99.90;;;;;;5097330;28;19912;-40
2022/11/14 09:59:44;;;;;;;;;;;8.80;99.90;;;;;;5096493;28;20396;-42
2022/11/14 10:02:13;;;;;;;;;;;8.80;99.90;;;;;;5105998;28;19908;-42
2022/11/14 10:04:58;;;;;;;;;;;8.90;99.90;;;;;;5116328;28;19974;-45
2022/11/14 10:07:39;;;;;;;;;;;8.90;99.90;;;;;;5106685;28;20003;-41
2022/11/14 10:10:23;;;;;;;;;;;9.00;99.90;;;;;;5116741;28;19908;-31
2022/11/14 10:13:09;;;;;;;;;;;8.90;99.90;;;;;;5112434;28;19912;-36
2022/11/14 10:15:50;;;;;;;;;;;8.90;99.90;;;;;;5113234;28;19998;-36
2022/11/14 10:18:23;;;;;;;;;;;9.00;99.90;;;;;;5097613;28;19915;-34
2022/11/14 10:20:57;;;;;;;;;;;9.00;99.90;;;;;;5095916;28;19989;-31
2022/11/14 10:23:45;;;;;;;;;;;9.00;99.90;;;;;;5095658;28;20364;-34
2022/11/14 10:26:23;;;;;;;;;;;9.00;99.90;;;;;;5106298;28;19923;-35
2022/11/14 10:28:51;;;;;;;;;;;9.00;99.90;;;;;;5116627;28;20264;-34
2022/11/14 10:31:35;;;;;;;;;;;9.00;99.90;;;;;;5113573;28;19908;-36
2022/11/14 10:34:19;;;;;;;;;;;9.10;99.90;;;;;;5106723;27;19985;-37
2022/11/14 10:36:49;;;;;;;;;;;9.20;99.90;;;;;;5107820;28;20439;-35
2022/11/14 10:39:14;;;;;;;;;;;9.30;99.90;;;;;;5103034;28;19907;-38
2022/11/14 10:41:40;;;;;;;;;;;9.50;99.90;;;;;;5115511;28;20295;-36
2022/11/14 10:44:10;;;;;;;;;;;9.60;99.90;;;;;;5116155;28;19962;-37
2022/11/14 10:46:38;;;;;;;;;;;9.70;99.90;;;;;;5112853;28;20555;-37
2022/11/14 10:49:14;;;;;;;;;;;9.90;99.90;;;;;;5115962;28;20387;-32
2022/11/14 10:51:45;;;;;;;;;;;10.00;99.90;;;;;;5112374;28;19915;-34
2022/11/14 10:54:30;;;;;;;;;;;10.00;99.90;;;;;;5115775;28;19991;-40
2022/11/14 10:56:55;;;;;;;;;;;10.00;99.90;;;;;;5112889;28;19908;-35
2022/11/14 10:59:21;;;;;;;;;;;10.00;99.90;;;;;;5099487;28;19919;-37
2022/11/14 11:01:51;;;;;;;;;;;10.00;99.90;;;;;;5095073;28;19907;-32
2022/11/14 11:04:30;;;;;;;;;;;10.00;99.90;;;;;;5109711;28;20333;-34
2022/11/14 11:07:08;;;;;;;;;;;10.10;99.90;;;;;;5109396;28;19912;-37
2022/11/14 11:12:20;;;;;;;;;;;10.30;99.90;;;;;;5106994;28;20197;-34
2022/11/14 11:14:50;;;;;;;;;;;10.40;99.90;;;;;;5095018;28;20331;-36
2022/11/14 11:17:19;;;;;;;;;;;10.40;99.90;;;;;;5097738;28;20367;-32
2022/11/14 11:19:47;;;;;;;;;;;10.50;99.90;;;;;;5112871;28;19955;-33
2022/11/14 11:22:26;;;;;;;;;;;10.40;99.90;;;;;;5109133;28;20265;-34
2022/11/14 11:24:52;;;;;;;;;;;10.40;99.90;;;;;;5094688;28;19920;-35
2022/11/14 11:27:19;;;;;;;;;;;10.60;99.90;;;;;;5098079;28;19918;-35
2022/11/14 11:29:44;;;;;;;;;;;10.70;99.90;;;;;;5115386;28;20390;-37
2022/11/14 11:32:10;;;;;;;;;;;10.70;99.90;;;;;;5107328;28;19908;-37
2022/11/14 11:34:35;;;;;;;;;;;10.70;99.90;;;;;;5109770;28;19907;-39
2022/11/14 11:37:20;;;;;;;;;;;10.70;99.90;;;;;;5112421;28;20298;-35
2022/11/14 11:39:51;;;;;;;;;;;10.60;99.90;;;;;;5110239;28;19915;-40
2022/11/14 11:42:20;;;;;;;;;;;10.60;99.90;;;;;;5115124;28;19907;-41
2022/11/14 11:44:47;;;;;;;;;;;10.70;99.90;;;;;;5110418;28;19907;-41
2022/11/14 11:47:15;;;;;;;;;;;10.70;99.90;;;;;;5108790;28;20378;-42
2022/11/14 11:49:48;;;;;;;;;;;10.70;99.90;;;;;;5114842;28;20393;-42
2022/11/14 11:52:16;;;;;;;;;;;10.80;99.90;;;;;;5113382;28;20302;-40
2022/11/14 11:54:46;;;;;;;;;;;10.80;99.90;;;;;;5113366;28;20011;-40
2022/11/14 11:57:15;;;;;;;;;;;10.90;99.90;;;;;;5113608;28;20457;-42
2022/11/14 11:59:48;;;;;;;;;;;11.00;99.90;;;;;;5113814;28;20030;-41
2022/11/14 12:02:24;;;;;;;;;;;11.00;99.90;;;;;;5108036;28;19911;-45
2022/11/14 12:04:51;;;;;;;;;;;11.10;99.90;;;;;;5114532;28;19908;-48
2022/11/14 12:07:35;;;;;;;;;;;11.10;99.90;;;;;;5112186;28;20329;-38
2022/11/14 12:10:03;;;;;;;;;;;11.10;99.90;;;;;;5107524;28;19952;-54
2022/11/14 12:12:41;;;;;;;;;;;11.00;99.90;;;;;;5114309;28;19907;-41
2022/11/14 12:15:07;;;;;;;;;;;11.10;99.90;;;;;;5114354;28;19914;-41
2022/11/14 12:17:38;;;;;;;;;;;11.10;99.90;;;;;;5094136;28;20291;-42
2022/11/14 12:20:19;;;;;;;;;;;11.10;99.90;;;;;;5093987;28;19915;-42
2022/11/14 12:23:03;;;;;;;;;;;11.10;99.90;;;;;;5106670;28;19976;-42
2022/11/14 12:25:47;;;;;;;;;;;11.10;99.90;;;;;;5112897;28;20406;-53
2022/11/14 12:28:12;;;;;;;;;;;11.10;99.90;;;;;;5102166;28;19994;-42
2022/11/14 12:30:40;;;;;;;;;;;11.20;99.90;;;;;;5093652;28;19962;-48
2022/11/14 12:33:10;;;;;;;;;;;11.30;99.90;;;;;;5112823;28;19951;-39
2022/11/14 12:35:38;;;;;;;;;;;11.20;99.90;;;;;;5113791;28;20387;-41
2022/11/14 12:38:11;;;;;;;;;;;11.30;99.90;;;;;;5105044;28;19954;-41
2022/11/14 12:40:38;;;;;;;;;;;11.30;99.90;;;;;;5093743;28;19919;-41
2022/11/14 12:43:10;;;;;;;;;;;11.20;99.90;;;;;;5093652;28;20307;-42
2022/11/14 12:45:39;;;;;;;;;;;11.20;99.90;;;;;;5098597;28;19908;-41
2022/11/14 12:48:23;;;;;;;;;;;11.20;99.90;;;;;;5114016;28;19918;-37
2022/11/14 12:50:49;;;;;;;;;;;11.10;99.90;;;;;;5113983;28;20325;-35
2022/11/14 12:53:36;;;;;;;;;;;10.90;99.90;;;;;;5111390;28;19907;-31
2022/11/14 12:56:04;;;;;;;;;;;10.80;99.90;;;;;;5093205;28;19972;-32
2022/11/14 12:58:29;;;;;;;;;;;10.80;99.90;;;;;;5093339;28;19908;-37
2022/11/14 13:01:15;;;;;;;;;;;10.70;99.90;;;;;;5100237;28;20477;-35
2022/11/14 13:03:40;;;;;;;;;;;10.60;99.90;;;;;;5101856;28;20378;-36
2022/11/14 13:06:08;;;;;;;;;;;10.40;99.90;;;;;;5111408;28;19933;-35
2022/11/14 13:08:52;;;;;;;;;;;10.30;99.90;;;;;;5110566;28;20005;-34
2022/11/14 13:22:43;;;;;;;;;;;10.40;99.90;;;;;;5113337;28;19954;-37
2022/11/14 13:25:16;;;;;;;;;;;10.30;99.90;;;;;;5097692;28;19920;-32
2022/11/14 13:27:42;;;;;;;;;;;10.10;99.90;;;;;;5109176;28;19911;-35
2022/11/14 13:30:08;;;;;;;;;;;10.00;99.90;;;;;;5111481;28;20452;-34
2022/11/14 13:32:36;;;;;;;;;;;9.80;99.90;;;;;;5113332;28;19908;-48
2022/11/14 13:35:03;;;;;;;;;;;9.80;99.90;;;;;;5105298;28;20375;-37
2022/11/14 13:37:32;;;;;;;;;;;9.80;99.90;;;;;;5092998;28;20380;-36
2022/11/14 13:40:03;;;;;;;;;;;9.80;99.90;;;;;;5092574;28;20412;-34
2022/11/14 13:42:31;;;;;;;;;;;9.80;99.90;;;;;;5092953;28;19912;-35
2022/11/14 13:45:15;;;;;;;;;;;9.80;99.90;;;;;;5093445;28;19908;-32
2022/11/14 13:47:59;;;;;;;;;;;9.80;99.90;;;;;;5092701;28;19912;-32
2022/11/14 13:50:32;;;;;;;;;;;9.70;99.90;;;;;;5102755;28;19914;-40
2022/11/14 13:52:58;;;;;;;;;;;9.80;99.90;;;;;;5117071;28;19912;-41
2022/11/14 13:55:26;;;;;;;;;;;9.80;99.90;;;;;;5101312;28;19916;-41
2022/11/14 13:58:05;;;;;;;;;;;9.80;99.90;;;;;;5096550;28;19908;-41
2022/11/14 14:00:45;;;;;;;;;;;9.80;99.90;;;;;;5109255;28;20029;-40
2022/11/14 14:03:20;;;;;;;;;;;9.60;99.90;;;;;;5115525;28;19907;-32
2022/11/14 14:06:09;;;;;;;;;;;9.50;99.90;;;;;;5098344;28;19908;-32
2022/11/14 14:08:53;;;;;;;;;;;9.50;99.90;;;;;;5096251;28;20053;-41
2022/11/14 14:11:21;;;;;;;;;;;9.50;99.90;;;;;;5095984;28;20368;-40
2022/11/14 14:13:46;;;;;;;;;;;9.40;99.90;;;;;;5103519;28;20011;-32
2022/11/14 14:16:20;;;;;;;;;;;9.40;99.90;;;;;;5111517;28;19947;-32
2022/11/14 14:18:53;;;;;;;;;;;9.40;99.90;;;;;;5116613;28;19907;-35
2022/11/14 14:21:21;;;;;;;;;;;9.40;99.90;;;;;;5116541;28;19912;-32
2022/11/14 14:23:47;;;;;;;;;;;9.40;99.90;;;;;;5102211;28;19915;-39
2022/11/14 14:26:18;;;;;;;;;;;9.40;99.90;;;;;;5100111;28;19915;-35
2022/11/14 14:28:44;;;;;;;;;;;9.40;99.90;;;;;;5114661;28;20378;-36
2022/11/14 14:31:11;;;;;;;;;;;9.50;99.90;;;;;;5116499;28;19907;-32
2022/11/14 14:33:44;;;;;;;;;;;9.40;99.90;;;;;;5100750;28;20027;-33
2022/11/14 14:36:24;;;;;;;;;;;9.40;99.90;;;;;;5116235;28;20268;-37
2022/11/14 14:38:50;;;;;;;;;;;9.30;99.90;;;;;;5113716;28;19914;-36
2022/11/14 14:41:17;;;;;;;;;;;9.30;99.90;;;;;;5096046;28;20368;-36
2022/11/14 14:43:48;;;;;;;;;;;9.30;99.90;;;;;;5096258;28;19948;-33
2022/11/14 14:46:14;;;;;;;;;;;9.30;99.90;;;;;;5106349;28;20377;-40
2022/11/14 14:48:42;;;;;;;;;;;9.30;99.90;;;;;;5095670;28;20002;-42
2022/11/14 14:51:12;;;;;;;;;;;9.30;99.90;;;;;;5095194;28;19918;-42